sensor_id;sensor_type;location;lat;lon;timestamp;P1;durP1;ratioP1;P2;durP2;ratioP2
80637;SDS011;69991;51.760;19.528;2023-06-22T00:01:18;20.50;;;17.40;;
80637;SDS011;69991;51.760;19.528;2023-06-22T00:03:46;22.10;;;16.90;;
80637;SDS011;69991;51.760;19.528;2023-06-22T00:06:13;21.30;;;17.00;;
80637;SDS011;69991;51.760;19.528;2023-06-22T00:08:40;24.00;;;18.10;;
80637;SDS011;69991;51.760;19.528;2023-06-22T00:11:08;23.60;;;17.90;;
80637;SDS011;69991;51.760;19.528;2023-06-22T00:13:35;20.00;;;16.70;;
80637;SDS011;69991;51.760;19.528;2023-06-22T00:16:02;22.10;;;17.30;;
80637;SDS011;69991;51.760;19.528;2023-06-22T00:18:29;21.70;;;16.90;;
80637;SDS011;69991;51.760;19.528;2023-06-22T00:20:57;24.00;;;18.50;;
80637;SDS011;69991;51.760;19.528;2023-06-22T00:23:25;23.10;;;18.50;;
80637;SDS011;69991;51.760;19.528;2023-06-22T00:25:52;23.10;;;18.10;;
80637;SDS011;69991;51.760;19.528;2023-06-22T00:28:19;20.30;;;16.40;;
80637;SDS011;69991;51.760;19.528;2023-06-22T00:30:47;23.70;;;17.70;;
80637;SDS011;69991;51.760;19.528;2023-06-22T00:33:15;24.10;;;18.30;;
80637;SDS011;69991;51.760;19.528;2023-06-22T00:35:43;21.30;;;17.40;;
80637;SDS011;69991;51.760;19.528;2023-06-22T00:38:10;22.00;;;18.10;;
80637;SDS011;69991;51.760;19.528;2023-06-22T00:40:37;24.40;;;18.60;;
80637;SDS011;69991;51.760;19.528;2023-06-22T00:43:05;24.80;;;19.20;;
80637;SDS011;69991;51.760;19.528;2023-06-22T00:45:33;24.80;;;19.20;;
80637;SDS011;69991;51.760;19.528;2023-06-22T00:48:00;22.10;;;18.20;;
80637;SDS011;69991;51.760;19.528;2023-06-22T00:50:32;22.90;;;19.30;;
80637;SDS011;69991;51.760;19.528;2023-06-22T00:53:06;22.70;;;17.40;;
80637;SDS011;69991;51.760;19.528;2023-06-22T00:55:38;24.80;;;18.90;;
80637;SDS011;69991;51.760;19.528;2023-06-22T00:58:10;25.80;;;19.50;;
80637;SDS011;69991;51.760;19.528;2023-06-22T01:00:39;25.20;;;19.10;;
80637;SDS011;69991;51.760;19.528;2023-06-22T01:03:07;24.70;;;19.70;;
80637;SDS011;69991;51.760;19.528;2023-06-22T01:05:38;22.70;;;18.20;;
80637;SDS011;69991;51.760;19.528;2023-06-22T01:11:29;23.20;;;18.20;;
80637;SDS011;69991;51.760;19.528;2023-06-22T01:17:05;25.10;;;18.60;;
80637;SDS011;69991;51.760;19.528;2023-06-22T01:19:35;24.90;;;18.00;;
80637;SDS011;69991;51.760;19.528;2023-06-22T01:22:08;22.30;;;17.30;;
80637;SDS011;69991;51.760;19.528;2023-06-22T01:27:47;23.70;;;17.60;;
80637;SDS011;69991;51.760;19.528;2023-06-22T01:30:23;23.30;;;16.30;;
80637;SDS011;69991;51.760;19.528;2023-06-22T01:32:53;20.90;;;15.80;;
80637;SDS011;69991;51.760;19.528;2023-06-22T01:35:21;21.90;;;17.20;;
80637;SDS011;69991;51.760;19.528;2023-06-22T01:37:48;21.90;;;16.30;;
80637;SDS011;69991;51.760;19.528;2023-06-22T01:40:15;21.10;;;15.70;;
80637;SDS011;69991;51.760;19.528;2023-06-22T01:42:43;21.10;;;15.40;;
80637;SDS011;69991;51.760;19.528;2023-06-22T01:45:11;19.20;;;14.80;;
80637;SDS011;69991;51.760;19.528;2023-06-22T01:47:39;20.50;;;15.60;;
80637;SDS011;69991;51.760;19.528;2023-06-22T01:50:06;19.60;;;15.50;;
80637;SDS011;69991;51.760;19.528;2023-06-22T01:52:33;19.20;;;15.40;;
80637;SDS011;69991;51.760;19.528;2023-06-22T01:55:00;19.40;;;15.40;;
80637;SDS011;69991;51.760;19.528;2023-06-22T01:57:28;20.60;;;16.00;;
80637;SDS011;69991;51.760;19.528;2023-06-22T02:02:38;17.40;;;14.00;;
80637;SDS011;69991;51.760;19.528;2023-06-22T02:05:10;18.70;;;15.30;;
80637;SDS011;69991;51.760;19.528;2023-06-22T02:07:44;20.00;;;14.90;;
80637;SDS011;69991;51.760;19.528;2023-06-22T02:10:14;18.80;;;14.00;;
80637;SDS011;69991;51.760;19.528;2023-06-22T02:12:43;19.20;;;14.60;;
80637;SDS011;69991;51.760;19.528;2023-06-22T02:15:11;19.40;;;14.20;;
80637;SDS011;69991;51.760;19.528;2023-06-22T02:17:39;16.40;;;13.10;;
80637;SDS011;69991;51.760;19.528;2023-06-22T02:20:12;17.20;;;13.20;;
80637;SDS011;69991;51.760;19.528;2023-06-22T02:22:40;19.40;;;14.30;;
80637;SDS011;69991;51.760;19.528;2023-06-22T02:25:08;18.30;;;13.60;;
80637;SDS011;69991;51.760;19.528;2023-06-22T02:27:35;18.80;;;13.60;;
80637;SDS011;69991;51.760;19.528;2023-06-22T02:30:02;18.00;;;13.90;;
80637;SDS011;69991;51.760;19.528;2023-06-22T02:32:30;16.30;;;12.70;;
80637;SDS011;69991;51.760;19.528;2023-06-22T02:34:57;18.50;;;13.60;;
80637;SDS011;69991;51.760;19.528;2023-06-22T02:37:24;17.40;;;13.10;;
80637;SDS011;69991;51.760;19.528;2023-06-22T02:39:52;17.30;;;13.10;;
80637;SDS011;69991;51.760;19.528;2023-06-22T02:42:19;18.90;;;14.10;;
80637;SDS011;69991;51.760;19.528;2023-06-22T02:44:48;18.20;;;13.70;;
80637;SDS011;69991;51.760;19.528;2023-06-22T02:47:15;18.60;;;13.10;;
80637;SDS011;69991;51.760;19.528;2023-06-22T02:49:42;17.40;;;12.70;;
80637;SDS011;69991;51.760;19.528;2023-06-22T02:52:11;17.20;;;13.90;;
80637;SDS011;69991;51.760;19.528;2023-06-22T02:54:38;15.70;;;12.20;;
80637;SDS011;69991;51.760;19.528;2023-06-22T02:57:05;16.80;;;12.80;;
80637;SDS011;69991;51.760;19.528;2023-06-22T02:59:33;15.50;;;11.50;;
80637;SDS011;69991;51.760;19.528;2023-06-22T03:02:00;16.50;;;12.10;;
80637;SDS011;69991;51.760;19.528;2023-06-22T03:04:29;19.20;;;13.40;;
80637;SDS011;69991;51.760;19.528;2023-06-22T03:06:57;18.50;;;13.80;;
80637;SDS011;69991;51.760;19.528;2023-06-22T03:09:28;18.20;;;13.60;;
80637;SDS011;69991;51.760;19.528;2023-06-22T03:11:55;18.20;;;13.10;;
80637;SDS011;69991;51.760;19.528;2023-06-22T03:14:22;16.30;;;12.80;;
80637;SDS011;69991;51.760;19.528;2023-06-22T03:16:49;17.00;;;13.80;;
80637;SDS011;69991;51.760;19.528;2023-06-22T03:19:16;17.60;;;12.50;;
80637;SDS011;69991;51.760;19.528;2023-06-22T03:21:43;17.60;;;12.90;;
80637;SDS011;69991;51.760;19.528;2023-06-22T03:24:10;18.30;;;12.30;;
80637;SDS011;69991;51.760;19.528;2023-06-22T03:26:37;16.40;;;12.20;;
80637;SDS011;69991;51.760;19.528;2023-06-22T03:29:04;16.60;;;12.70;;
80637;SDS011;69991;51.760;19.528;2023-06-22T03:31:31;16.40;;;12.10;;
80637;SDS011;69991;51.760;19.528;2023-06-22T03:33:58;17.30;;;12.80;;
80637;SDS011;69991;51.760;19.528;2023-06-22T03:36:25;15.00;;;11.40;;
80637;SDS011;69991;51.760;19.528;2023-06-22T03:38:52;15.20;;;10.60;;
80637;SDS011;69991;51.760;19.528;2023-06-22T03:41:19;16.10;;;12.10;;
80637;SDS011;69991;51.760;19.528;2023-06-22T03:43:46;16.00;;;11.20;;
80637;SDS011;69991;51.760;19.528;2023-06-22T03:46:14;15.60;;;10.80;;
80637;SDS011;69991;51.760;19.528;2023-06-22T03:48:41;14.00;;;10.60;;
80637;SDS011;69991;51.760;19.528;2023-06-22T03:51:08;12.80;;;9.30;;
80637;SDS011;69991;51.760;19.528;2023-06-22T03:53:36;15.10;;;10.10;;
80637;SDS011;69991;51.760;19.528;2023-06-22T03:56:03;13.30;;;9.40;;
80637;SDS011;69991;51.760;19.528;2023-06-22T03:58:30;13.80;;;10.00;;
80637;SDS011;69991;51.760;19.528;2023-06-22T04:00:59;13.40;;;9.90;;
80637;SDS011;69991;51.760;19.528;2023-06-22T04:03:29;13.30;;;9.30;;
80637;SDS011;69991;51.760;19.528;2023-06-22T04:05:56;12.50;;;9.40;;
80637;SDS011;69991;51.760;19.528;2023-06-22T04:08:23;13.30;;;9.90;;
80637;SDS011;69991;51.760;19.528;2023-06-22T04:10:50;12.30;;;8.90;;
80637;SDS011;69991;51.760;19.528;2023-06-22T04:13:17;12.90;;;9.00;;
80637;SDS011;69991;51.760;19.528;2023-06-22T04:15:44;14.10;;;9.80;;
80637;SDS011;69991;51.760;19.528;2023-06-22T04:18:11;14.10;;;10.20;;
80637;SDS011;69991;51.760;19.528;2023-06-22T04:20:38;13.10;;;9.40;;
80637;SDS011;69991;51.760;19.528;2023-06-22T04:23:05;14.20;;;9.90;;
80637;SDS011;69991;51.760;19.528;2023-06-22T04:25:32;12.60;;;9.50;;
80637;SDS011;69991;51.760;19.528;2023-06-22T04:27:59;14.80;;;9.70;;
80637;SDS011;69991;51.760;19.528;2023-06-22T04:30:26;10.60;;;8.30;;
80637;SDS011;69991;51.760;19.528;2023-06-22T04:32:53;13.70;;;9.10;;
80637;SDS011;69991;51.760;19.528;2023-06-22T04:35:24;12.60;;;9.50;;
80637;SDS011;69991;51.760;19.528;2023-06-22T04:37:52;12.60;;;9.30;;
80637;SDS011;69991;51.760;19.528;2023-06-22T04:40:22;11.30;;;8.70;;
80637;SDS011;69991;51.760;19.528;2023-06-22T04:42:49;11.30;;;8.30;;
80637;SDS011;69991;51.760;19.528;2023-06-22T04:45:20;12.10;;;8.20;;
80637;SDS011;69991;51.760;19.528;2023-06-22T04:47:48;10.50;;;7.80;;
80637;SDS011;69991;51.760;19.528;2023-06-22T04:50:15;11.40;;;7.40;;
80637;SDS011;69991;51.760;19.528;2023-06-22T04:52:43;11.40;;;7.40;;
80637;SDS011;69991;51.760;19.528;2023-06-22T04:55:12;10.30;;;7.90;;
80637;SDS011;69991;51.760;19.528;2023-06-22T04:57:41;8.90;;;6.10;;
80637;SDS011;69991;51.760;19.528;2023-06-22T05:00:18;9.10;;;7.00;;
80637;SDS011;69991;51.760;19.528;2023-06-22T05:02:46;9.00;;;6.20;;
80637;SDS011;69991;51.760;19.528;2023-06-22T05:05:14;10.40;;;6.50;;
80637;SDS011;69991;51.760;19.528;2023-06-22T05:07:42;10.10;;;6.80;;
80637;SDS011;69991;51.760;19.528;2023-06-22T05:10:10;9.00;;;6.60;;
80637;SDS011;69991;51.760;19.528;2023-06-22T05:12:39;10.00;;;7.00;;
80637;SDS011;69991;51.760;19.528;2023-06-22T05:15:07;12.30;;;9.00;;
80637;SDS011;69991;51.760;19.528;2023-06-22T05:17:36;9.80;;;7.50;;
80637;SDS011;69991;51.760;19.528;2023-06-22T05:20:03;9.40;;;6.30;;
80637;SDS011;69991;51.760;19.528;2023-06-22T05:22:32;9.00;;;6.30;;
80637;SDS011;69991;51.760;19.528;2023-06-22T05:24:59;13.50;;;6.80;;
80637;SDS011;69991;51.760;19.528;2023-06-22T05:27:26;11.30;;;7.00;;
80637;SDS011;69991;51.760;19.528;2023-06-22T05:29:53;11.20;;;6.80;;
80637;SDS011;69991;51.760;19.528;2023-06-22T05:32:21;9.40;;;7.00;;
80637;SDS011;69991;51.760;19.528;2023-06-22T05:34:48;11.90;;;7.10;;
80637;SDS011;69991;51.760;19.528;2023-06-22T05:37:15;8.80;;;7.00;;
80637;SDS011;69991;51.760;19.528;2023-06-22T05:39:42;11.10;;;7.10;;
80637;SDS011;69991;51.760;19.528;2023-06-22T05:42:09;8.90;;;6.70;;
80637;SDS011;69991;51.760;19.528;2023-06-22T05:44:37;11.20;;;6.90;;
80637;SDS011;69991;51.760;19.528;2023-06-22T05:47:06;9.80;;;6.70;;
80637;SDS011;69991;51.760;19.528;2023-06-22T05:49:33;7.60;;;5.90;;
80637;SDS011;69991;51.760;19.528;2023-06-22T05:52:00;8.60;;;6.50;;
80637;SDS011;69991;51.760;19.528;2023-06-22T05:54:27;10.30;;;7.80;;
80637;SDS011;69991;51.760;19.528;2023-06-22T05:56:54;11.00;;;7.20;;
80637;SDS011;69991;51.760;19.528;2023-06-22T05:59:21;9.30;;;6.30;;
80637;SDS011;69991;51.760;19.528;2023-06-22T06:01:48;8.70;;;6.40;;
80637;SDS011;69991;51.760;19.528;2023-06-22T06:04:17;8.90;;;6.20;;
80637;SDS011;69991;51.760;19.528;2023-06-22T06:06:45;7.00;;;5.60;;
80637;SDS011;69991;51.760;19.528;2023-06-22T06:09:14;10.50;;;6.80;;
80637;SDS011;69991;51.760;19.528;2023-06-22T06:11:41;9.70;;;6.10;;
80637;SDS011;69991;51.760;19.528;2023-06-22T06:14:09;18.00;;;8.20;;
80637;SDS011;69991;51.760;19.528;2023-06-22T06:16:36;9.20;;;6.40;;
80637;SDS011;69991;51.760;19.528;2023-06-22T06:19:03;7.40;;;5.70;;
80637;SDS011;69991;51.760;19.528;2023-06-22T06:21:30;8.60;;;5.50;;
80637;SDS011;69991;51.760;19.528;2023-06-22T06:23:57;8.70;;;5.40;;
80637;SDS011;69991;51.760;19.528;2023-06-22T06:26:25;7.20;;;5.10;;
80637;SDS011;69991;51.760;19.528;2023-06-22T06:28:56;9.70;;;5.70;;
80637;SDS011;69991;51.760;19.528;2023-06-22T06:31:24;8.70;;;5.20;;
80637;SDS011;69991;51.760;19.528;2023-06-22T06:33:51;8.20;;;4.90;;
80637;SDS011;69991;51.760;19.528;2023-06-22T06:36:18;7.20;;;5.00;;
80637;SDS011;69991;51.760;19.528;2023-06-22T06:38:45;16.30;;;5.90;;
80637;SDS011;69991;51.760;19.528;2023-06-22T06:41:14;8.60;;;5.10;;
80637;SDS011;69991;51.760;19.528;2023-06-22T06:43:42;10.30;;;5.10;;
80637;SDS011;69991;51.760;19.528;2023-06-22T06:46:09;10.50;;;5.60;;
80637;SDS011;69991;51.760;19.528;2023-06-22T06:48:37;10.20;;;5.50;;
80637;SDS011;69991;51.760;19.528;2023-06-22T06:51:04;11.10;;;6.00;;
80637;SDS011;69991;51.760;19.528;2023-06-22T06:53:31;8.70;;;5.80;;
80637;SDS011;69991;51.760;19.528;2023-06-22T06:55:58;7.90;;;5.40;;
80637;SDS011;69991;51.760;19.528;2023-06-22T06:58:25;6.90;;;4.70;;
80637;SDS011;69991;51.760;19.528;2023-06-22T07:00:52;7.70;;;4.50;;
80637;SDS011;69991;51.760;19.528;2023-06-22T07:03:19;6.40;;;4.60;;
80637;SDS011;69991;51.760;19.528;2023-06-22T07:05:46;8.10;;;4.40;;
80637;SDS011;69991;51.760;19.528;2023-06-22T07:08:13;21.40;;;5.70;;
80637;SDS011;69991;51.760;19.528;2023-06-22T07:10:40;7.70;;;4.20;;
80637;SDS011;69991;51.760;19.528;2023-06-22T07:13:07;6.10;;;4.10;;
80637;SDS011;69991;51.760;19.528;2023-06-22T07:15:34;7.20;;;4.60;;
80637;SDS011;69991;51.760;19.528;2023-06-22T07:18:01;6.70;;;4.40;;
80637;SDS011;69991;51.760;19.528;2023-06-22T07:20:28;10.70;;;4.60;;
80637;SDS011;69991;51.760;19.528;2023-06-22T07:22:56;6.00;;;4.30;;
80637;SDS011;69991;51.760;19.528;2023-06-22T07:25:23;7.60;;;4.70;;
80637;SDS011;69991;51.760;19.528;2023-06-22T07:27:57;7.40;;;4.30;;
80637;SDS011;69991;51.760;19.528;2023-06-22T07:30:25;7.00;;;4.30;;
80637;SDS011;69991;51.760;19.528;2023-06-22T07:32:54;8.60;;;4.60;;
80637;SDS011;69991;51.760;19.528;2023-06-22T07:35:21;7.90;;;4.30;;
80637;SDS011;69991;51.760;19.528;2023-06-22T07:37:48;10.40;;;4.50;;
80637;SDS011;69991;51.760;19.528;2023-06-22T07:40:15;5.00;;;3.30;;
80637;SDS011;69991;51.760;19.528;2023-06-22T07:42:42;5.70;;;2.90;;
80637;SDS011;69991;51.760;19.528;2023-06-22T07:45:09;5.20;;;3.30;;
80637;SDS011;69991;51.760;19.528;2023-06-22T07:47:36;6.60;;;3.40;;
80637;SDS011;69991;51.760;19.528;2023-06-22T07:50:04;4.60;;;2.90;;
80637;SDS011;69991;51.760;19.528;2023-06-22T07:52:31;5.50;;;2.90;;
80637;SDS011;69991;51.760;19.528;2023-06-22T07:54:59;5.10;;;2.90;;
80637;SDS011;69991;51.760;19.528;2023-06-22T07:57:26;4.90;;;2.90;;
80637;SDS011;69991;51.760;19.528;2023-06-22T08:00:05;6.70;;;2.90;;
80637;SDS011;69991;51.760;19.528;2023-06-22T08:02:44;6.00;;;3.20;;
80637;SDS011;69991;51.760;19.528;2023-06-22T08:05:13;5.70;;;3.60;;
80637;SDS011;69991;51.760;19.528;2023-06-22T08:08:00;4.50;;;2.90;;
80637;SDS011;69991;51.760;19.528;2023-06-22T08:10:27;7.20;;;3.40;;
80637;SDS011;69991;51.760;19.528;2023-06-22T08:12:55;4.10;;;2.50;;
80637;SDS011;69991;51.760;19.528;2023-06-22T08:15:22;5.10;;;2.90;;
80637;SDS011;69991;51.760;19.528;2023-06-22T08:17:49;6.20;;;3.10;;
80637;SDS011;69991;51.760;19.528;2023-06-22T08:20:16;4.60;;;2.80;;
80637;SDS011;69991;51.760;19.528;2023-06-22T08:22:43;5.40;;;3.60;;
80637;SDS011;69991;51.760;19.528;2023-06-22T08:25:11;5.50;;;3.00;;
80637;SDS011;69991;51.760;19.528;2023-06-22T08:27:38;5.50;;;3.70;;
80637;SDS011;69991;51.760;19.528;2023-06-22T08:30:06;6.80;;;3.60;;
80637;SDS011;69991;51.760;19.528;2023-06-22T08:32:34;14.70;;;11.10;;
80637;SDS011;69991;51.760;19.528;2023-06-22T08:35:01;10.20;;;4.20;;
80637;SDS011;69991;51.760;19.528;2023-06-22T08:37:28;5.40;;;2.90;;
80637;SDS011;69991;51.760;19.528;2023-06-22T08:40:03;5.80;;;3.00;;
80637;SDS011;69991;51.760;19.528;2023-06-22T08:42:42;5.30;;;2.90;;
80637;SDS011;69991;51.760;19.528;2023-06-22T08:45:10;6.50;;;3.10;;
80637;SDS011;69991;51.760;19.528;2023-06-22T08:47:40;6.00;;;3.00;;
80637;SDS011;69991;51.760;19.528;2023-06-22T08:50:08;6.40;;;3.40;;
80637;SDS011;69991;51.760;19.528;2023-06-22T08:52:40;6.10;;;3.50;;
80637;SDS011;69991;51.760;19.528;2023-06-22T08:55:08;6.10;;;3.20;;
80637;SDS011;69991;51.760;19.528;2023-06-22T08:57:36;8.80;;;3.50;;
80637;SDS011;69991;51.760;19.528;2023-06-22T09:00:07;6.10;;;3.30;;
80637;SDS011;69991;51.760;19.528;2023-06-22T09:02:44;6.60;;;3.00;;
80637;SDS011;69991;51.760;19.528;2023-06-22T09:05:12;5.40;;;3.20;;
80637;SDS011;69991;51.760;19.528;2023-06-22T09:07:39;4.20;;;2.70;;
80637;SDS011;69991;51.760;19.528;2023-06-22T09:10:07;5.40;;;2.80;;
80637;SDS011;69991;51.760;19.528;2023-06-22T09:12:34;6.90;;;2.60;;
80637;SDS011;69991;51.760;19.528;2023-06-22T09:15:08;7.20;;;3.10;;
80637;SDS011;69991;51.760;19.528;2023-06-22T09:17:42;6.30;;;2.90;;
80637;SDS011;69991;51.760;19.528;2023-06-22T09:20:09;6.40;;;3.00;;
80637;SDS011;69991;51.760;19.528;2023-06-22T09:22:37;9.50;;;2.90;;
80637;SDS011;69991;51.760;19.528;2023-06-22T09:25:05;8.80;;;2.60;;
80637;SDS011;69991;51.760;19.528;2023-06-22T09:27:34;6.30;;;3.10;;
80637;SDS011;69991;51.760;19.528;2023-06-22T09:30:01;7.40;;;2.30;;
80637;SDS011;69991;51.760;19.528;2023-06-22T09:32:29;6.60;;;2.80;;
80637;SDS011;69991;51.760;19.528;2023-06-22T09:34:56;3.60;;;2.10;;
80637;SDS011;69991;51.760;19.528;2023-06-22T09:37:24;4.40;;;2.30;;
80637;SDS011;69991;51.760;19.528;2023-06-22T09:39:50;3.60;;;1.70;;
80637;SDS011;69991;51.760;19.528;2023-06-22T09:42:17;69.30;;;10.10;;
80637;SDS011;69991;51.760;19.528;2023-06-22T09:44:44;3.90;;;2.00;;
80637;SDS011;69991;51.760;19.528;2023-06-22T09:47:12;3.90;;;1.80;;
80637;SDS011;69991;51.760;19.528;2023-06-22T09:49:39;4.20;;;2.00;;
80637;SDS011;69991;51.760;19.528;2023-06-22T09:52:15;4.40;;;2.10;;
80637;SDS011;69991;51.760;19.528;2023-06-22T09:54:42;5.70;;;2.50;;
80637;SDS011;69991;51.760;19.528;2023-06-22T09:57:09;4.20;;;2.30;;
80637;SDS011;69991;51.760;19.528;2023-06-22T09:59:36;6.40;;;2.40;;
80637;SDS011;69991;51.760;19.528;2023-06-22T10:02:03;4.00;;;2.20;;
80637;SDS011;69991;51.760;19.528;2023-06-22T10:04:31;4.70;;;2.30;;
80637;SDS011;69991;51.760;19.528;2023-06-22T10:06:58;5.80;;;2.40;;
80637;SDS011;69991;51.760;19.528;2023-06-22T10:09:25;3.70;;;2.10;;
80637;SDS011;69991;51.760;19.528;2023-06-22T10:11:52;4.00;;;2.40;;
80637;SDS011;69991;51.760;19.528;2023-06-22T10:14:19;4.30;;;2.20;;
80637;SDS011;69991;51.760;19.528;2023-06-22T10:16:47;5.00;;;2.30;;
80637;SDS011;69991;51.760;19.528;2023-06-22T10:19:15;18.70;;;3.50;;
80637;SDS011;69991;51.760;19.528;2023-06-22T10:21:42;3.80;;;2.20;;
80637;SDS011;69991;51.760;19.528;2023-06-22T10:24:09;11.10;;;3.40;;
80637;SDS011;69991;51.760;19.528;2023-06-22T10:26:36;5.60;;;2.20;;
80637;SDS011;69991;51.760;19.528;2023-06-22T10:29:03;4.20;;;1.80;;
80637;SDS011;69991;51.760;19.528;2023-06-22T10:31:33;5.20;;;1.90;;
80637;SDS011;69991;51.760;19.528;2023-06-22T10:34:00;4.20;;;2.00;;
80637;SDS011;69991;51.760;19.528;2023-06-22T10:36:27;14.10;;;3.30;;
80637;SDS011;69991;51.760;19.528;2023-06-22T10:38:54;6.70;;;2.10;;
80637;SDS011;69991;51.760;19.528;2023-06-22T10:41:22;3.40;;;1.90;;
80637;SDS011;69991;51.760;19.528;2023-06-22T10:43:49;9.30;;;2.70;;
80637;SDS011;69991;51.760;19.528;2023-06-22T10:46:16;3.70;;;1.90;;
80637;SDS011;69991;51.760;19.528;2023-06-22T10:48:43;4.90;;;2.00;;
80637;SDS011;69991;51.760;19.528;2023-06-22T10:51:10;4.40;;;2.10;;
80637;SDS011;69991;51.760;19.528;2023-06-22T10:53:37;5.00;;;2.20;;
80637;SDS011;69991;51.760;19.528;2023-06-22T10:56:04;4.50;;;2.20;;
80637;SDS011;69991;51.760;19.528;2023-06-22T10:58:31;5.00;;;2.20;;
80637;SDS011;69991;51.760;19.528;2023-06-22T11:00:58;4.10;;;2.10;;
80637;SDS011;69991;51.760;19.528;2023-06-22T11:03:25;5.80;;;2.60;;
80637;SDS011;69991;51.760;19.528;2023-06-22T11:05:52;6.50;;;2.40;;
80637;SDS011;69991;51.760;19.528;2023-06-22T11:08:19;8.40;;;3.70;;
80637;SDS011;69991;51.760;19.528;2023-06-22T11:10:47;4.10;;;2.30;;
80637;SDS011;69991;51.760;19.528;2023-06-22T11:13:13;4.50;;;2.40;;
80637;SDS011;69991;51.760;19.528;2023-06-22T11:15:40;4.90;;;2.20;;
80637;SDS011;69991;51.760;19.528;2023-06-22T11:18:07;4.50;;;2.30;;
80637;SDS011;69991;51.760;19.528;2023-06-22T11:20:34;5.80;;;2.40;;
80637;SDS011;69991;51.760;19.528;2023-06-22T11:23:05;4.50;;;2.40;;
80637;SDS011;69991;51.760;19.528;2023-06-22T11:25:33;4.10;;;2.10;;
80637;SDS011;69991;51.760;19.528;2023-06-22T11:28:02;4.60;;;2.50;;
80637;SDS011;69991;51.760;19.528;2023-06-22T11:30:29;4.90;;;2.10;;
80637;SDS011;69991;51.760;19.528;2023-06-22T11:32:58;4.00;;;2.10;;
80637;SDS011;69991;51.760;19.528;2023-06-22T11:35:25;3.50;;;2.00;;
80637;SDS011;69991;51.760;19.528;2023-06-22T11:37:52;4.60;;;2.10;;
80637;SDS011;69991;51.760;19.528;2023-06-22T11:40:19;4.10;;;2.40;;
80637;SDS011;69991;51.760;19.528;2023-06-22T11:42:46;3.60;;;2.10;;
80637;SDS011;69991;51.760;19.528;2023-06-22T11:45:14;5.30;;;2.40;;
80637;SDS011;69991;51.760;19.528;2023-06-22T11:47:41;5.30;;;2.50;;
80637;SDS011;69991;51.760;19.528;2023-06-22T11:50:08;3.60;;;1.90;;
80637;SDS011;69991;51.760;19.528;2023-06-22T11:52:35;4.60;;;2.10;;
80637;SDS011;69991;51.760;19.528;2023-06-22T11:55:03;3.70;;;2.10;;
80637;SDS011;69991;51.760;19.528;2023-06-22T11:57:38;3.70;;;2.10;;
80637;SDS011;69991;51.760;19.528;2023-06-22T12:00:18;4.00;;;2.40;;
80637;SDS011;69991;51.760;19.528;2023-06-22T12:02:47;3.80;;;2.20;;
80637;SDS011;69991;51.760;19.528;2023-06-22T12:05:14;4.20;;;2.40;;
80637;SDS011;69991;51.760;19.528;2023-06-22T12:07:41;7.60;;;2.10;;
80637;SDS011;69991;51.760;19.528;2023-06-22T12:10:08;4.20;;;2.10;;
80637;SDS011;69991;51.760;19.528;2023-06-22T12:12:36;7.70;;;2.50;;
80637;SDS011;69991;51.760;19.528;2023-06-22T12:15:03;4.90;;;2.20;;
80637;SDS011;69991;51.760;19.528;2023-06-22T12:17:31;4.50;;;2.80;;
80637;SDS011;69991;51.760;19.528;2023-06-22T12:19:58;4.40;;;2.40;;
80637;SDS011;69991;51.760;19.528;2023-06-22T12:22:25;5.00;;;2.40;;
80637;SDS011;69991;51.760;19.528;2023-06-22T12:24:52;4.90;;;2.40;;
80637;SDS011;69991;51.760;19.528;2023-06-22T12:27:19;4.30;;;2.50;;
80637;SDS011;69991;51.760;19.528;2023-06-22T12:29:46;3.90;;;2.20;;
80637;SDS011;69991;51.760;19.528;2023-06-22T12:32:14;4.20;;;2.40;;
80637;SDS011;69991;51.760;19.528;2023-06-22T12:34:41;4.00;;;2.60;;
80637;SDS011;69991;51.760;19.528;2023-06-22T12:37:09;4.30;;;2.60;;
80637;SDS011;69991;51.760;19.528;2023-06-22T12:39:36;4.30;;;2.20;;
80637;SDS011;69991;51.760;19.528;2023-06-22T12:42:03;4.10;;;2.40;;
80637;SDS011;69991;51.760;19.528;2023-06-22T12:44:31;4.90;;;2.50;;
80637;SDS011;69991;51.760;19.528;2023-06-22T12:46:58;3.70;;;2.10;;
80637;SDS011;69991;51.760;19.528;2023-06-22T12:49:25;7.60;;;2.50;;
80637;SDS011;69991;51.760;19.528;2023-06-22T12:51:52;5.10;;;2.30;;
80637;SDS011;69991;51.760;19.528;2023-06-22T12:54:19;3.60;;;2.40;;
80637;SDS011;69991;51.760;19.528;2023-06-22T12:56:46;4.20;;;2.50;;
80637;SDS011;69991;51.760;19.528;2023-06-22T12:59:13;14.30;;;10.60;;
80637;SDS011;69991;51.760;19.528;2023-06-22T13:01:40;6.40;;;4.20;;
80637;SDS011;69991;51.760;19.528;2023-06-22T13:04:07;6.00;;;4.10;;
80637;SDS011;69991;51.760;19.528;2023-06-22T13:06:35;4.30;;;2.60;;
80637;SDS011;69991;51.760;19.528;2023-06-22T13:09:02;5.60;;;2.70;;
80637;SDS011;69991;51.760;19.528;2023-06-22T13:11:34;4.70;;;2.50;;
80637;SDS011;69991;51.760;19.528;2023-06-22T13:14:01;6.00;;;3.00;;
80637;SDS011;69991;51.760;19.528;2023-06-22T13:16:30;5.00;;;2.40;;
80637;SDS011;69991;51.760;19.528;2023-06-22T13:18:58;4.60;;;2.90;;
80637;SDS011;69991;51.760;19.528;2023-06-22T13:21:24;4.60;;;2.70;;
80637;SDS011;69991;51.760;19.528;2023-06-22T13:23:52;3.90;;;2.30;;
80637;SDS011;69991;51.760;19.528;2023-06-22T13:26:18;4.20;;;2.40;;
80637;SDS011;69991;51.760;19.528;2023-06-22T13:28:45;4.10;;;2.80;;
80637;SDS011;69991;51.760;19.528;2023-06-22T13:31:12;4.40;;;2.40;;
80637;SDS011;69991;51.760;19.528;2023-06-22T13:33:39;4.70;;;2.70;;
80637;SDS011;69991;51.760;19.528;2023-06-22T13:36:07;4.90;;;2.40;;
80637;SDS011;69991;51.760;19.528;2023-06-22T13:38:35;4.50;;;2.00;;
80637;SDS011;69991;51.760;19.528;2023-06-22T13:41:05;5.30;;;2.60;;
80637;SDS011;69991;51.760;19.528;2023-06-22T13:43:32;3.70;;;2.30;;
80637;SDS011;69991;51.760;19.528;2023-06-22T13:45:59;5.00;;;2.30;;
80637;SDS011;69991;51.760;19.528;2023-06-22T13:48:26;5.00;;;2.60;;
80637;SDS011;69991;51.760;19.528;2023-06-22T13:50:55;4.80;;;2.30;;
80637;SDS011;69991;51.760;19.528;2023-06-22T13:53:24;5.30;;;2.50;;
80637;SDS011;69991;51.760;19.528;2023-06-22T13:55:52;4.20;;;2.20;;
80637;SDS011;69991;51.760;19.528;2023-06-22T13:58:18;7.90;;;2.60;;
80637;SDS011;69991;51.760;19.528;2023-06-22T14:00:46;3.90;;;2.20;;
80637;SDS011;69991;51.760;19.528;2023-06-22T14:03:14;4.60;;;2.40;;
80637;SDS011;69991;51.760;19.528;2023-06-22T14:05:43;5.80;;;2.80;;
80637;SDS011;69991;51.760;19.528;2023-06-22T14:08:11;4.40;;;3.00;;
80637;SDS011;69991;51.760;19.528;2023-06-22T14:10:58;4.50;;;2.80;;
80637;SDS011;69991;51.760;19.528;2023-06-22T14:13:25;5.40;;;2.60;;
80637;SDS011;69991;51.760;19.528;2023-06-22T14:15:52;7.70;;;2.80;;
80637;SDS011;69991;51.760;19.528;2023-06-22T14:18:20;4.80;;;2.50;;
80637;SDS011;69991;51.760;19.528;2023-06-22T14:20:49;4.80;;;2.30;;
80637;SDS011;69991;51.760;19.528;2023-06-22T14:23:16;4.20;;;2.60;;
80637;SDS011;69991;51.760;19.528;2023-06-22T14:25:43;4.50;;;2.70;;
80637;SDS011;69991;51.760;19.528;2023-06-22T14:28:10;4.50;;;2.20;;
80637;SDS011;69991;51.760;19.528;2023-06-22T14:30:37;3.90;;;2.50;;
80637;SDS011;69991;51.760;19.528;2023-06-22T14:33:03;4.10;;;2.50;;
80637;SDS011;69991;51.760;19.528;2023-06-22T14:35:31;3.70;;;2.30;;
80637;SDS011;69991;51.760;19.528;2023-06-22T14:37:58;4.90;;;2.70;;
80637;SDS011;69991;51.760;19.528;2023-06-22T14:40:25;4.80;;;2.40;;
80637;SDS011;69991;51.760;19.528;2023-06-22T14:42:53;4.90;;;2.60;;